Time,TemperatureF,DewpointF,PressureIn,WindDirection,WindDirectionDegrees,WindSpeedMPH,WindSpeedGustMPH,Humidity,HourlyPrecipIn,Conditions,Clouds,dailyrainin,SoftwareType,DateUTC
2013-04-21 00:01:00,39.0,34.9,30.23,West,270,0.0,0.0,85,0.00,,---,0.00,VWS V14.00,2013-04-21 04:01:00,
2013-04-21 00:06:00,38.8,34.7,30.23,West,270,0.0,0.0,85,0.00,,---,0.00,VWS V14.00,2013-04-21 04:06:00,
2013-04-21 00:12:00,38.8,35.0,30.23,West,270,0.0,0.0,86,0.00,,---,0.00,VWS V14.00,2013-04-21 04:12:00,
2013-04-21 00:17:00,38.4,34.6,30.23,West,270,0.0,0.0,86,0.00,,---,0.00,VWS V14.00,2013-04-21 04:17:00,
2013-04-21 00:22:00,38.3,34.5,30.23,West,270,0.0,0.0,86,0.00,,---,0.00,VWS V14.00,2013-04-21 04:22:00,
2013-04-21 00:27:00,38.3,34.5,30.23,West,270,0.0,0.0,86,0.00,,---,0.00,VWS V14.00,2013-04-21 04:27:00,
2013-04-21 00:32:00,38.1,34.6,30.23,West,270,0.0,0.0,87,0.00,,---,0.00,VWS V14.00,2013-04-21 04:32:00,
2013-04-21 00:37:00,37.9,34.4,30.23,West,270,0.0,0.0,87,0.00,,---,0.00,VWS V14.00,2013-04-21 04:37:00,
2013-04-21 00:42:00,37.9,34.4,30.23,West,270,0.0,0.0,87,0.00,,---,0.00,VWS V14.00,2013-04-21 04:42:00,
2013-04-21 00:47:00,37.7,34.2,30.24,West,270,0.0,0.0,87,0.00,,---,0.00,VWS V14.00,2013-04-21 04:47:00,
2013-04-21 00:52:00,37.5,34.3,30.24,West,270,0.0,0.0,88,0.00,,---,0.00,VWS V14.00,2013-04-21 04:52:00,
2013-04-21 00:57:00,37.4,34.2,30.24,West,270,0.0,0.0,88,0.00,,---,0.00,VWS V14.00,2013-04-21 04:57:00,
2013-04-21 01:02:00,37.2,34.0,30.24,West,270,0.0,0.0,88,0.00,,---,0.00,VWS V14.00,2013-04-21 05:02:00,
2013-04-21 01:07:00,37.2,34.0,30.24,West,270,0.0,0.0,88,0.00,,---,0.00,VWS V14.00,2013-04-21 05:07:00,
2013-04-21 01:12:00,37.2,34.0,30.24,West,270,0.0,0.0,88,0.00,,---,0.00,VWS V14.00,2013-04-21 05:12:00,
2013-04-21 01:17:00,37.0,34.1,30.24,West,270,0.0,0.0,89,0.00,,---,0.00,VWS V14.00,2013-04-21 05:17:00,
2013-04-21 01:22:00,37.0,34.1,30.24,West,270,0.0,0.0,89,0.00,,---,0.00,VWS V14.00,2013-04-21 05:22:00,
2013-04-21 01:27:00,36.8,33.9,30.24,West,270,0.0,0.0,89,0.00,,---,0.00,VWS V14.00,2013-04-21 05:27:00,
2013-04-21 01:32:00,36.6,33.7,30.24,West,270,0.0,0.0,89,0.00,,---,0.00,VWS V14.00,2013-04-21 05:32:00,
2013-04-21 01:37:00,36.6,34.0,30.24,West,270,0.0,0.0,90,0.00,,---,0.00,VWS V14.00,2013-04-21 05:37:00,
2013-04-21 01:42:00,36.5,33.8,30.24,West,270,0.0,0.0,90,0.00,,---,0.00,VWS V14.00,2013-04-21 05:42:00,
2013-04-21 01:47:00,36.5,33.8,30.24,West,270,0.0,0.0,90,0.00,,---,0.00,VWS V14.00,2013-04-21 05:47:00,
2013-04-21 01:52:00,36.3,33.9,30.24,West,270,0.0,0.0,91,0.00,,---,0.00,VWS V14.00,2013-04-21 05:52:00,
2013-04-21 01:57:00,36.3,33.9,30.24,West,270,0.0,0.0,91,0.00,,---,0.00,VWS V14.00,2013-04-21 05:57:00,
2013-04-21 02:02:00,36.1,33.7,30.24,West,270,0.0,0.0,91,0.00,,---,0.00,VWS V14.00,2013-04-21 06:02:00,
2013-04-21 02:07:00,35.9,33.5,30.24,West,270,0.0,0.0,91,0.00,,---,0.00,VWS V14.00,2013-04-21 06:07:00,
2013-04-21 02:12:00,35.7,33.3,30.24,West,270,0.0,0.0,91,0.00,,---,0.00,VWS V14.00,2013-04-21 06:12:00,
2013-04-21 02:17:00,35.7,33.3,30.23,West,270,0.0,0.0,91,0.00,,---,0.00,VWS V14.00,2013-04-21 06:17:00,
2013-04-21 02:22:00,35.7,33.3,30.24,West,270,0.0,0.0,91,0.00,,---,0.00,VWS V14.00,2013-04-21 06:22:00,
2013-04-21 02:27:00,35.6,33.5,30.23,West,270,0.0,0.0,92,0.00,,---,0.00,VWS V14.00,2013-04-21 06:27:00,
2013-04-21 02:32:00,35.4,33.3,30.23,West,270,0.0,0.0,92,0.00,,---,0.00,VWS V14.00,2013-04-21 06:32:00,
2013-04-21 02:37:00,35.4,33.3,30.23,West,270,0.0,0.0,92,0.00,,---,0.00,VWS V14.00,2013-04-21 06:37:00,
2013-04-21 02:42:00,35.2,33.1,30.24,West,270,0.0,0.0,92,0.00,,---,0.00,VWS V14.00,2013-04-21 06:42:00,
2013-04-21 02:47:00,35.2,33.1,30.24,West,270,0.0,0.0,92,0.00,,---,0.00,VWS V14.00,2013-04-21 06:47:00,
2013-04-21 02:52:00,35.0,32.9,30.24,West,270,0.0,0.0,92,0.00,,---,0.00,VWS V14.00,2013-04-21 06:52:00,
2013-04-21 02:57:00,34.8,32.7,30.24,West,270,0.0,0.0,92,0.00,,---,0.00,VWS V14.00,2013-04-21 06:57:00,
2013-04-21 03:02:00,34.8,33.0,30.24,West,270,0.0,0.0,93,0.00,,---,0.00,VWS V14.00,2013-04-21 07:02:00,
2013-04-21 03:07:00,34.8,33.0,30.24,West,270,0.0,0.0,93,0.00,,---,0.00,VWS V14.00,2013-04-21 07:07:00,
2013-04-21 03:12:00,34.7,32.9,30.24,West,270,0.0,0.0,93,0.00,,---,0.00,VWS V14.00,2013-04-21 07:12:00,
2013-04-21 03:17:00,34.7,32.9,30.24,West,270,0.0,0.0,93,0.00,,---,0.00,VWS V14.00,2013-04-21 07:17:00,
2013-04-21 03:22:00,34.3,32.5,30.24,West,270,0.0,0.0,93,0.00,,---,0.00,VWS V14.00,2013-04-21 07:22:00,
2013-04-21 03:27:00,34.3,32.5,30.24,West,270,0.0,0.0,93,0.00,,---,0.00,VWS V14.00,2013-04-21 07:27:00,
2013-04-21 03:32:00,34.3,32.5,30.24,West,270,0.0,0.0,93,0.00,,---,0.00,VWS V14.00,2013-04-21 07:32:00,
2013-04-21 03:37:00,34.3,32.5,30.24,West,270,0.0,0.0,93,0.00,,---,0.00,VWS V14.00,2013-04-21 07:37:00,
2013-04-21 03:42:00,34.3,32.5,30.24,West,270,0.0,0.0,93,0.00,,---,0.00,VWS V14.00,2013-04-21 07:42:00,
2013-04-21 03:47:00,34.3,32.5,30.24,West,270,0.0,0.0,93,0.00,,---,0.00,VWS V14.00,2013-04-21 07:47:00,
2013-04-21 03:52:00,34.1,32.3,30.25,West,270,0.0,0.0,93,0.00,,---,0.00,VWS V14.00,2013-04-21 07:52:00,
2013-04-21 03:57:00,33.9,32.4,30.24,West,270,0.0,0.0,94,0.00,,---,0.00,VWS V14.00,2013-04-21 07:57:00,
2013-04-21 04:02:00,33.8,32.3,30.25,West,270,0.0,0.0,94,0.00,,---,0.00,VWS V14.00,2013-04-21 08:02:00,
2013-04-21 04:07:00,33.8,32.3,30.25,West,270,0.0,0.0,94,0.00,,---,0.00,VWS V14.00,2013-04-21 08:07:00,
2013-04-21 04:12:00,33.6,32.1,30.25,West,270,0.0,0.0,94,0.00,,---,0.00,VWS V14.00,2013-04-21 08:12:00,
2013-04-21 04:17:00,33.6,32.1,30.26,West,270,0.0,0.0,94,0.00,,---,0.00,VWS V14.00,2013-04-21 08:17:00,
2013-04-21 04:22:00,33.6,32.1,30.26,West,270,0.0,0.0,94,0.00,,---,0.00,VWS V14.00,2013-04-21 08:22:00,
2013-04-21 04:28:00,33.6,32.1,30.26,West,270,0.0,0.0,94,0.00,,---,0.00,VWS V14.00,2013-04-21 08:28:00,
2013-04-21 04:33:00,33.6,32.1,30.26,West,270,0.0,0.0,94,0.00,,---,0.00,VWS V14.00,2013-04-21 08:33:00,
2013-04-21 04:38:00,33.4,31.9,30.26,West,270,0.0,0.0,94,0.00,,---,0.00,VWS V14.00,2013-04-21 08:38:00,
2013-04-21 04:43:00,33.2,31.9,30.26,West,270,0.0,0.0,95,0.00,,---,0.00,VWS V14.00,2013-04-21 08:43:00,
2013-04-21 04:48:00,33.2,31.9,30.26,West,270,0.0,0.0,95,0.00,,---,0.00,VWS V14.00,2013-04-21 08:48:00,
2013-04-21 04:53:00,33.0,31.7,30.26,West,270,0.0,0.0,95,0.00,,---,0.00,VWS V14.00,2013-04-21 08:53:00,
2013-04-21 04:58:00,33.0,31.7,30.26,West,270,0.0,0.0,95,0.00,,---,0.00,VWS V14.00,2013-04-21 08:58:00,
2013-04-21 05:03:00,33.2,31.9,30.26,West,270,0.0,0.0,95,0.00,,---,0.00,VWS V14.00,2013-04-21 09:03:00,
2013-04-21 05:08:00,33.0,31.7,30.26,West,270,0.0,0.0,95,0.00,,---,0.00,VWS V14.00,2013-04-21 09:08:00,
2013-04-21 05:13:00,33.0,31.7,30.26,West,270,0.0,0.0,95,0.00,,---,0.00,VWS V14.00,2013-04-21 09:13:00,
2013-04-21 05:18:00,33.0,31.7,30.27,West,270,0.0,0.0,95,0.00,,---,0.00,VWS V14.00,2013-04-21 09:18:00,
2013-04-21 05:23:00,32.9,31.6,30.27,West,270,0.0,0.0,95,0.00,,---,0.00,VWS V14.00,2013-04-21 09:23:00,
2013-04-21 05:28:00,32.7,31.4,30.27,West,270,0.0,0.0,95,0.00,,---,0.00,VWS V14.00,2013-04-21 09:28:00,
2013-04-21 05:33:00,32.7,31.4,30.28,West,270,0.0,0.0,95,0.00,,---,0.00,VWS V14.00,2013-04-21 09:33:00,
2013-04-21 05:38:00,32.7,31.4,30.27,West,270,0.0,0.0,95,0.00,,---,0.00,VWS V14.00,2013-04-21 09:38:00,
2013-04-21 05:43:00,32.5,31.2,30.28,West,270,0.0,0.0,95,0.00,,---,0.00,VWS V14.00,2013-04-21 09:43:00,
2013-04-21 05:48:00,32.5,31.2,30.28,West,270,0.0,0.0,95,0.00,,---,0.00,VWS V14.00,2013-04-21 09:48:00,
2013-04-21 05:53:00,32.3,31.0,30.28,West,270,0.0,0.0,95,0.00,,---,0.00,VWS V14.00,2013-04-21 09:53:00,
2013-04-21 05:58:00,32.3,31.3,30.29,West,270,0.0,0.0,96,0.00,,---,0.00,VWS V14.00,2013-04-21 09:58:00,
2013-04-21 06:03:00,32.1,31.1,30.29,West,270,0.0,0.0,96,0.00,,---,0.00,VWS V14.00,2013-04-21 10:03:00,
2013-04-21 06:08:00,32.1,31.1,30.29,West,270,0.0,0.0,96,0.00,,---,0.00,VWS V14.00,2013-04-21 10:08:00,
2013-04-21 06:13:00,32.1,31.1,30.29,West,270,0.0,0.0,96,0.00,,---,0.00,VWS V14.00,2013-04-21 10:13:00,
2013-04-21 06:18:00,31.8,30.8,30.29,West,270,0.0,0.0,96,0.00,,---,0.00,VWS V14.00,2013-04-21 10:18:00,
2013-04-21 06:23:00,31.8,30.8,30.30,West,270,0.0,0.0,96,0.00,,---,0.00,VWS V14.00,2013-04-21 10:23:00,
2013-04-21 06:28:00,31.8,30.8,30.30,West,270,0.0,0.0,96,0.00,,---,0.00,VWS V14.00,2013-04-21 10:28:00,
2013-04-21 06:33:00,31.8,30.8,30.30,West,270,0.0,0.0,96,0.00,,---,0.00,VWS V14.00,2013-04-21 10:33:00,
2013-04-21 06:38:00,31.6,30.6,30.30,West,270,0.0,0.0,96,0.00,,---,0.00,VWS V14.00,2013-04-21 10:38:00,
2013-04-21 06:43:00,31.8,30.8,30.31,West,270,0.0,0.0,96,0.00,,---,0.00,VWS V14.00,2013-04-21 10:43:00,
2013-04-21 06:48:00,31.8,30.8,30.31,West,270,0.0,0.0,96,0.00,,---,0.00,VWS V14.00,2013-04-21 10:48:00,
2013-04-21 06:53:00,31.6,30.6,30.31,West,270,0.0,0.0,96,0.00,,---,0.00,VWS V14.00,2013-04-21 10:53:00,
2013-04-21 06:58:00,31.6,30.9,30.32,West,270,0.0,0.0,97,0.00,,---,0.00,VWS V14.00,2013-04-21 10:58:00,
2013-04-21 07:03:00,31.6,30.9,30.32,West,270,0.0,0.0,97,0.00,,---,0.00,VWS V14.00,2013-04-21 11:03:00,
2013-04-21 07:08:00,31.8,31.0,30.32,West,270,0.0,0.0,97,0.00,,---,0.00,VWS V14.00,2013-04-21 11:08:00,
2013-04-21 07:13:00,31.8,31.0,30.32,West,270,0.0,0.0,97,0.00,,---,0.00,VWS V14.00,2013-04-21 11:13:00,
2013-04-21 07:18:00,32.0,31.2,30.32,West,270,0.0,0.0,97,0.00,,---,0.00,VWS V14.00,2013-04-21 11:18:00,
2013-04-21 07:23:00,32.1,31.4,30.33,West,270,0.0,0.0,97,0.00,,---,0.00,VWS V14.00,2013-04-21 11:23:00,
2013-04-21 07:28:00,32.1,31.4,30.33,West,270,0.0,0.0,97,0.00,,---,0.00,VWS V14.00,2013-04-21 11:28:00,
2013-04-21 07:33:00,32.3,31.5,30.33,West,270,0.0,0.0,97,0.00,,---,0.00,VWS V14.00,2013-04-21 11:33:00,
2013-04-21 07:38:00,32.5,31.7,30.33,West,270,0.0,0.0,97,0.00,,---,0.00,VWS V14.00,2013-04-21 11:38:00,
2013-04-21 07:43:00,32.9,32.1,30.33,West,270,0.0,0.0,97,0.00,,---,0.00,VWS V14.00,2013-04-21 11:43:00,
2013-04-21 07:48:00,33.4,32.9,30.33,West,270,0.0,0.0,98,0.00,,---,0.00,VWS V14.00,2013-04-21 11:48:00,
2013-04-21 07:53:00,33.9,33.4,30.33,West,270,0.0,0.0,98,0.00,,---,0.00,VWS V14.00,2013-04-21 11:53:00,
2013-04-21 07:58:00,34.5,34.0,30.34,West,270,0.0,0.0,98,0.00,,---,0.00,VWS V14.00,2013-04-21 11:58:00,
2013-04-21 08:03:00,34.8,34.3,30.34,West,270,0.0,0.0,98,0.00,,---,0.00,VWS V14.00,2013-04-21 12:03:00,
2013-04-21 08:08:00,35.7,35.2,30.34,West,270,0.0,0.0,98,0.00,,---,0.00,VWS V14.00,2013-04-21 12:08:00,
2013-04-21 08:13:00,36.1,35.6,30.34,West,270,0.0,0.0,98,0.00,,---,0.00,VWS V14.00,2013-04-21 12:13:00,
2013-04-21 08:18:00,36.5,36.0,30.34,West,270,0.0,0.0,98,0.00,,---,0.00,VWS V14.00,2013-04-21 12:18:00,
2013-04-21 08:23:00,37.2,36.7,30.35,West,270,0.0,0.0,98,0.00,,---,0.00,VWS V14.00,2013-04-21 12:23:00,
2013-04-21 08:29:00,37.5,37.0,30.35,West,270,0.0,0.0,98,0.00,,---,0.00,VWS V14.00,2013-04-21 12:29:00,
2013-04-21 08:34:00,37.9,37.1,30.35,West,270,0.0,0.0,97,0.00,,---,0.00,VWS V14.00,2013-04-21 12:34:00,
2013-04-21 08:39:00,38.4,37.6,30.35,West,270,0.0,0.0,97,0.00,,---,0.00,VWS V14.00,2013-04-21 12:39:00,
2013-04-21 08:44:00,39.0,38.2,30.35,West,270,0.0,0.0,97,0.00,,---,0.00,VWS V14.00,2013-04-21 12:44:00,
2013-04-21 08:49:00,39.7,38.9,30.36,West,270,0.0,0.0,97,0.00,,---,0.00,VWS V14.00,2013-04-21 12:49:00,
2013-04-21 08:54:00,40.6,39.5,30.36,West,270,0.0,0.0,96,0.00,,---,0.00,VWS V14.00,2013-04-21 12:54:00,
2013-04-21 08:59:00,41.3,40.2,30.36,West,270,0.0,0.0,96,0.00,,---,0.00,VWS V14.00,2013-04-21 12:59:00,
2013-04-21 09:04:00,42.0,40.7,30.35,West,270,0.0,0.0,95,0.00,,---,0.00,VWS V14.00,2013-04-21 13:04:00,
2013-04-21 09:09:00,43.5,41.9,30.35,West,270,0.0,0.0,94,0.00,,---,0.00,VWS V14.00,2013-04-21 13:09:00,
2013-04-21 09:14:00,44.0,42.1,30.35,West,270,0.0,0.0,93,0.00,,---,0.00,VWS V14.00,2013-04-21 13:14:00,
2013-04-21 09:19:00,44.4,42.2,30.35,West,270,0.0,0.0,92,0.00,,---,0.00,VWS V14.00,2013-04-21 13:19:00,
2013-04-21 09:24:00,44.4,41.7,30.36,West,270,0.0,0.0,90,0.00,,---,0.00,VWS V14.00,2013-04-21 13:24:00,
2013-04-21 09:29:00,44.6,41.8,30.36,West,270,0.0,0.0,90,0.00,,---,0.00,VWS V14.00,2013-04-21 13:29:00,
2013-04-21 09:34:00,44.9,41.9,30.36,West,270,0.0,0.0,89,0.00,,---,0.00,VWS V14.00,2013-04-21 13:34:00,
2013-04-21 09:39:00,46.2,42.5,30.36,West,270,0.0,0.0,87,0.00,,---,0.00,VWS V14.00,2013-04-21 13:39:00,
2013-04-21 09:44:00,47.4,43.4,30.36,SE,135,0.0,0.0,86,0.00,,---,0.00,VWS V14.00,2013-04-21 13:44:00,
2013-04-21 09:49:00,48.7,43.8,30.36,SSE,158,0.0,0.0,83,0.00,,---,0.00,VWS V14.00,2013-04-21 13:49:00,
2013-04-21 09:54:00,50.1,43.5,30.36,SSE,158,0.0,0.0,78,0.00,,---,0.00,VWS V14.00,2013-04-21 13:54:00,
2013-04-21 09:59:00,50.7,42.7,30.36,East,90,1.7,1.7,74,0.00,,---,0.00,VWS V14.00,2013-04-21 13:59:00,
2013-04-21 10:04:00,51.4,42.7,30.36,NE,45,0.0,0.2,72,0.00,,---,0.00,VWS V14.00,2013-04-21 14:04:00,
2013-04-21 10:09:00,52.3,42.5,30.36,NE,45,0.0,1.5,69,0.00,,---,0.00,VWS V14.00,2013-04-21 14:09:00,
2013-04-21 10:14:00,53.2,42.5,30.36,ENE,68,0.0,2.4,67,0.00,,---,0.00,VWS V14.00,2013-04-21 14:14:00,
2013-04-21 10:19:00,53.7,43.0,30.36,NNE,22,0.0,2.4,67,0.00,,---,0.00,VWS V14.00,2013-04-21 14:19:00,
2013-04-21 10:24:00,54.3,42.8,30.36,ESE,112,0.0,0.0,65,0.00,,---,0.00,VWS V14.00,2013-04-21 14:24:00,
2013-04-21 10:29:00,55.2,43.2,30.36,NNE,22,0.0,0.0,64,0.00,,---,0.00,VWS V14.00,2013-04-21 14:29:00,
2013-04-21 10:34:00,55.5,43.1,30.36,ESE,112,0.0,0.0,63,0.00,,---,0.00,VWS V14.00,2013-04-21 14:34:00,
2013-04-21 10:39:00,55.9,43.5,30.36,SSW,202,0.0,3.5,63,0.00,,---,0.00,VWS V14.00,2013-04-21 14:39:00,
2013-04-21 10:44:00,56.1,43.3,30.36,ESE,112,5.3,5.3,62,0.00,,---,0.00,VWS V14.00,2013-04-21 14:44:00,
2013-04-21 10:49:00,55.9,42.7,30.36,ESE,112,2.2,5.3,61,0.00,,---,0.00,VWS V14.00,2013-04-21 14:49:00,
2013-04-21 10:54:00,56.1,42.8,30.36,ESE,112,0.8,0.8,61,0.00,,---,0.00,VWS V14.00,2013-04-21 14:54:00,
2013-04-21 10:59:00,56.4,43.6,30.36,SSW,202,0.0,0.8,62,0.00,,---,0.00,VWS V14.00,2013-04-21 14:59:00,
2013-04-21 11:04:00,56.8,42.6,30.36,NE,45,0.0,2.4,59,0.00,,---,0.00,VWS V14.00,2013-04-21 15:04:00,
2013-04-21 11:09:00,57.9,43.7,30.36,NNE,22,2.9,5.5,59,0.00,,---,0.00,VWS V14.00,2013-04-21 15:09:00,
2013-04-21 11:14:00,57.7,43.0,30.36,South,180,0.0,4.6,58,0.00,,---,0.00,VWS V14.00,2013-04-21 15:14:00,
2013-04-21 11:19:00,57.9,43.2,30.36,East,90,0.0,4.6,58,0.00,,---,0.00,VWS V14.00,2013-04-21 15:19:00,
2013-04-21 11:24:00,58.2,43.1,30.36,SE,135,2.6,2.6,57,0.00,,---,0.00,VWS V14.00,2013-04-21 15:24:00,
2013-04-21 11:29:00,58.8,44.5,30.36,SSE,158,1.3,2.6,59,0.00,,---,0.00,VWS V14.00,2013-04-21 15:29:00,
2013-04-21 11:34:00,59.3,44.1,30.36,North,0,0.8,0.8,57,0.00,,---,0.00,VWS V14.00,2013-04-21 15:34:00,
2013-04-21 11:39:00,58.6,41.5,30.36,NE,45,0.0,6.7,53,0.00,,---,0.00,VWS V14.00,2013-04-21 15:39:00,
2013-04-21 11:44:00,58.6,43.0,30.36,SSE,158,0.0,3.5,56,0.00,,---,0.00,VWS V14.00,2013-04-21 15:44:00,
2013-04-21 11:49:00,58.8,43.2,30.36,SSW,202,2.0,5.3,56,0.00,,---,0.00,VWS V14.00,2013-04-21 15:49:00,
2013-04-21 11:54:00,59.7,44.5,30.35,SE,135,6.7,6.7,57,0.00,,---,0.00,VWS V14.00,2013-04-21 15:54:00,
2013-04-21 11:59:00,60.0,44.3,30.35,SSW,202,6.7,6.7,56,0.00,,---,0.00,VWS V14.00,2013-04-21 15:59:00,
2013-04-21 12:04:00,60.4,44.7,30.35,SE,135,0.0,2.9,56,0.00,,---,0.00,VWS V14.00,2013-04-21 16:04:00,
2013-04-21 12:09:00,60.2,44.5,30.35,SSW,202,5.5,5.5,56,0.00,,---,0.00,VWS V14.00,2013-04-21 16:09:00,
2013-04-21 12:14:00,60.8,44.5,30.35,ESE,112,2.4,3.1,55,0.00,,---,0.00,VWS V14.00,2013-04-21 16:14:00,
2013-04-21 12:19:00,60.9,44.6,30.35,East,90,0.0,3.1,55,0.00,,---,0.00,VWS V14.00,2013-04-21 16:19:00,
2013-04-21 12:24:00,60.6,43.9,30.35,SE,135,0.0,3.8,54,0.00,,---,0.00,VWS V14.00,2013-04-21 16:24:00,
2013-04-21 12:29:00,60.4,43.7,30.34,NNW,338,0.0,6.0,54,0.00,,---,0.00,VWS V14.00,2013-04-21 16:29:00,
2013-04-21 12:35:00,60.4,44.2,30.34,ENE,68,0.6,6.0,55,0.00,,---,0.00,VWS V14.00,2013-04-21 16:35:00,
2013-04-21 12:40:00,60.2,43.5,30.34,SSE,158,0.0,6.0,54,0.00,,---,0.00,VWS V14.00,2013-04-21 16:40:00,
2013-04-21 12:45:00,60.4,43.7,30.34,ENE,68,0.0,1.5,54,0.00,,---,0.00,VWS V14.00,2013-04-21 16:45:00,
2013-04-21 12:49:00,60.0,43.8,30.34,SE,135,1.5,1.5,55,0.00,,---,0.00,VWS V14.00,2013-04-21 16:49:00,
2013-04-21 12:54:00,60.0,43.8,30.34,SSW,202,3.5,3.5,55,0.00,,---,0.00,VWS V14.00,2013-04-21 16:54:00,
2013-04-21 12:59:00,60.0,43.8,30.34,ESE,112,0.0,3.5,55,0.00,,---,0.00,VWS V14.00,2013-04-21 16:59:00,
2013-04-21 13:05:00,60.4,44.7,30.33,SSE,158,1.3,1.3,56,0.00,,---,0.00,VWS V14.00,2013-04-21 17:05:00,
2013-04-21 13:10:00,60.6,44.8,30.33,East,90,0.0,1.3,56,0.00,,---,0.00,VWS V14.00,2013-04-21 17:10:00,
2013-04-21 13:15:00,61.3,45.0,30.33,WSW,248,0.4,4.0,55,0.00,,---,0.00,VWS V14.00,2013-04-21 17:15:00,
2013-04-21 13:20:00,61.8,46.0,30.33,SSE,158,4.0,4.0,56,0.00,,---,0.00,VWS V14.00,2013-04-21 17:20:00,
2013-04-21 13:25:00,62.4,45.5,30.33,ENE,68,0.0,4.0,54,0.00,,---,0.00,VWS V14.00,2013-04-21 17:25:00,
2013-04-21 13:30:00,62.4,45.1,30.33,NNE,22,3.8,4.0,53,0.00,,---,0.00,VWS V14.00,2013-04-21 17:30:00,
2013-04-21 13:35:00,62.0,45.2,30.32,WNW,292,0.0,3.8,54,0.00,,---,0.00,VWS V14.00,2013-04-21 17:35:00,
2013-04-21 13:40:00,62.0,45.7,30.32,East,90,1.1,4.9,55,0.00,,---,0.00,VWS V14.00,2013-04-21 17:40:00,
2013-04-21 13:45:00,62.6,46.7,30.33,SW,225,4.0,5.5,56,0.00,,---,0.00,VWS V14.00,2013-04-21 17:45:00,
2013-04-21 13:50:00,62.9,46.5,30.32,SE,135,0.0,5.5,55,0.00,,---,0.00,VWS V14.00,2013-04-21 17:50:00,
2013-04-21 13:55:00,62.7,45.3,30.32,ESE,112,0.0,0.8,53,0.00,,---,0.00,VWS V14.00,2013-04-21 17:55:00,
2013-04-21 14:00:00,62.9,46.5,30.32,SSE,158,0.0,4.2,55,0.00,,---,0.00,VWS V14.00,2013-04-21 18:00:00,
2013-04-21 14:05:00,63.3,46.9,30.32,South,180,0.4,0.4,55,0.00,,---,0.00,VWS V14.00,2013-04-21 18:05:00,
2013-04-21 14:10:00,63.3,46.4,30.32,South,180,0.0,4.6,54,0.00,,---,0.00,VWS V14.00,2013-04-21 18:10:00,
2013-04-21 14:15:00,63.1,46.2,30.32,ESE,112,0.0,3.3,54,0.00,,---,0.00,VWS V14.00,2013-04-21 18:15:00,
2013-04-21 14:20:00,62.9,46.0,30.33,SSE,158,2.6,3.3,54,0.00,,---,0.00,VWS V14.00,2013-04-21 18:20:00,
2013-04-21 14:25:00,62.7,46.3,30.32,SW,225,0.0,1.1,55,0.00,,---,0.00,VWS V14.00,2013-04-21 18:25:00,
2013-04-21 14:30:00,62.6,46.2,30.33,SW,225,6.7,6.7,55,0.00,,---,0.00,VWS V14.00,2013-04-21 18:30:00,
2013-04-21 14:35:00,62.7,45.8,30.32,ESE,112,3.5,6.7,54,0.00,,---,0.00,VWS V14.00,2013-04-21 18:35:00,
2013-04-21 14:40:00,62.9,46.0,30.32,NE,45,4.9,6.7,54,0.00,,---,0.00,VWS V14.00,2013-04-21 18:40:00,
2013-04-21 14:45:00,62.7,45.3,30.32,WSW,248,0.0,0.0,53,0.00,,---,0.00,VWS V14.00,2013-04-21 18:45:00,
2013-04-21 14:50:00,62.6,45.7,30.32,North,0,0.4,2.4,54,0.00,,---,0.00,VWS V14.00,2013-04-21 18:50:00,
2013-04-21 14:55:00,62.4,45.1,30.32,SE,135,0.8,3.3,53,0.00,,---,0.00,VWS V14.00,2013-04-21 18:55:00,
2013-04-21 15:00:00,62.4,46.0,30.31,NNE,22,2.0,5.8,55,0.00,,---,0.00,VWS V14.00,2013-04-21 19:00:00,
2013-04-21 15:05:00,62.4,45.5,30.31,East,90,0.0,3.8,54,0.00,,---,0.00,VWS V14.00,2013-04-21 19:05:00,
2013-04-21 15:10:00,62.2,45.4,30.31,East,90,5.1,5.1,54,0.00,,---,0.00,VWS V14.00,2013-04-21 19:10:00,
2013-04-21 15:15:00,61.5,44.7,30.31,NE,45,4.4,4.4,54,0.00,,---,0.00,VWS V14.00,2013-04-21 19:15:00,
2013-04-21 15:20:00,61.3,45.5,30.31,WSW,248,0.0,4.4,56,0.00,,---,0.00,VWS V14.00,2013-04-21 19:20:00,
2013-04-21 15:25:00,61.7,44.9,30.30,SE,135,0.8,0.8,54,0.00,,---,0.00,VWS V14.00,2013-04-21 19:25:00,
2013-04-21 15:30:00,62.2,44.9,30.30,SE,135,0.0,0.8,53,0.02,,---,0.02,VWS V14.00,2013-04-21 19:30:00,
2013-04-21 15:35:00,61.8,44.5,30.30,ENE,68,0.0,3.3,53,0.02,,---,0.02,VWS V14.00,2013-04-21 19:35:00,
2013-04-21 15:40:00,61.3,43.5,30.30,NE,45,0.0,6.7,52,0.02,,---,0.02,VWS V14.00,2013-04-21 19:40:00,
2013-04-21 15:45:00,61.1,44.3,30.30,SW,225,0.0,5.8,54,0.02,,---,0.02,VWS V14.00,2013-04-21 19:45:00,
2013-04-21 15:50:00,61.1,43.9,30.30,SSE,158,0.8,5.8,53,0.02,,---,0.02,VWS V14.00,2013-04-21 19:50:00,
2013-04-21 15:55:00,61.1,43.9,30.30,SE,135,0.0,1.7,53,0.02,,---,0.02,VWS V14.00,2013-04-21 19:55:00,
2013-04-21 16:00:00,61.3,44.0,30.29,SE,135,1.3,1.7,53,0.02,,---,0.02,VWS V14.00,2013-04-21 20:00:00,
2013-04-21 16:05:00,61.5,44.2,30.29,ESE,112,3.3,3.3,53,0.02,,---,0.02,VWS V14.00,2013-04-21 20:05:00,
2013-04-21 16:10:00,61.1,43.9,30.29,SSW,202,1.3,5.8,53,0.02,,---,0.02,VWS V14.00,2013-04-21 20:10:00,
2013-04-21 16:15:00,60.6,42.9,30.28,ESE,112,2.0,2.0,52,0.02,,---,0.02,VWS V14.00,2013-04-21 20:15:00,
2013-04-21 16:20:00,60.6,43.4,30.28,SE,135,5.1,5.1,53,0.02,,---,0.02,VWS V14.00,2013-04-21 20:20:00,
2013-04-21 16:25:00,60.9,44.2,30.28,SE,135,3.1,3.1,54,0.02,,---,0.02,VWS V14.00,2013-04-21 20:25:00,
2013-04-21 16:30:00,60.6,43.9,30.28,SW,225,2.2,3.1,54,0.02,,---,0.02,VWS V14.00,2013-04-21 20:30:00,
2013-04-21 16:35:00,60.6,43.9,30.28,WSW,248,0.0,2.2,54,0.00,,---,0.02,VWS V14.00,2013-04-21 20:35:00,
2013-04-21 16:40:00,60.6,43.9,30.28,West,270,0.0,4.6,54,0.00,,---,0.02,VWS V14.00,2013-04-21 20:40:00,
2013-04-21 16:45:00,60.4,43.7,30.28,NNE,22,2.2,5.3,54,0.00,,---,0.02,VWS V14.00,2013-04-21 20:45:00,
2013-04-21 16:50:00,60.0,42.8,30.28,SSW,202,1.3,5.3,53,0.00,,---,0.02,VWS V14.00,2013-04-21 20:50:00,
2013-04-21 16:55:00,60.0,42.8,30.28,NNE,22,0.0,0.6,53,0.00,,---,0.02,VWS V14.00,2013-04-21 20:55:00,
2013-04-21 17:00:00,59.7,43.0,30.28,North,0,0.0,0.6,54,0.00,,---,0.02,VWS V14.00,2013-04-21 21:00:00,
2013-04-21 17:05:00,59.7,43.0,30.28,South,180,0.0,0.0,54,0.00,,---,0.02,VWS V14.00,2013-04-21 21:05:00,
2013-04-21 17:10:00,59.7,43.5,30.28,WSW,248,3.3,3.3,55,0.00,,---,0.02,VWS V14.00,2013-04-21 21:10:00,
2013-04-21 17:15:00,59.9,43.7,30.28,WSW,248,0.0,3.3,55,0.00,,---,0.02,VWS V14.00,2013-04-21 21:15:00,
2013-04-21 17:20:00,59.9,43.7,30.29,WSW,248,0.0,3.8,55,0.00,,---,0.02,VWS V14.00,2013-04-21 21:20:00,
2013-04-21 17:25:00,59.7,43.5,30.29,ENE,68,0.0,0.6,55,0.00,,---,0.02,VWS V14.00,2013-04-21 21:25:00,
2013-04-21 17:30:00,59.5,43.3,30.29,East,90,0.0,0.0,55,0.00,,---,0.02,VWS V14.00,2013-04-21 21:30:00,
2013-04-21 17:35:00,59.5,43.8,30.29,SSE,158,0.0,0.0,56,0.00,,---,0.02,VWS V14.00,2013-04-21 21:35:00,
2013-04-21 17:41:00,59.5,43.8,30.29,ESE,112,0.0,0.0,56,0.00,,---,0.02,VWS V14.00,2013-04-21 21:41:00,
2013-04-21 17:46:00,59.5,43.8,30.29,SSW,202,4.0,4.0,56,0.00,,---,0.02,VWS V14.00,2013-04-21 21:46:00,
2013-04-21 17:51:00,59.3,43.6,30.28,SSW,202,0.0,0.0,56,0.00,,---,0.02,VWS V14.00,2013-04-21 21:51:00,
2013-04-21 17:56:00,59.1,43.9,30.29,ENE,68,5.1,5.1,57,0.00,,---,0.02,VWS V14.00,2013-04-21 21:56:00,
2013-04-21 18:01:00,58.8,43.2,30.28,SSE,158,0.8,0.8,56,0.00,,---,0.02,VWS V14.00,2013-04-21 22:01:00,
2013-04-21 18:06:00,58.8,43.2,30.28,North,0,2.9,2.9,56,0.00,,---,0.02,VWS V14.00,2013-04-21 22:06:00,
2013-04-21 18:11:00,58.8,43.2,30.28,NNE,22,0.0,0.0,56,0.00,,---,0.02,VWS V14.00,2013-04-21 22:11:00,
2013-04-21 18:16:00,58.8,43.6,30.28,ESE,112,6.2,6.2,57,0.00,,---,0.02,VWS V14.00,2013-04-21 22:16:00,
2013-04-21 18:21:00,58.6,43.9,30.28,ESE,112,6.2,6.2,58,0.00,,---,0.02,VWS V14.00,2013-04-21 22:21:00,
2013-04-21 18:26:00,58.2,43.5,30.29,SSW,202,0.0,6.2,58,0.00,,---,0.02,VWS V14.00,2013-04-21 22:26:00,
2013-04-21 18:31:00,58.2,43.5,30.28,East,90,0.0,0.0,58,0.00,,---,0.02,VWS V14.00,2013-04-21 22:31:00,
2013-04-21 18:36:00,57.9,43.2,30.28,SSW,202,1.3,2.4,58,0.00,,---,0.02,VWS V14.00,2013-04-21 22:36:00,
2013-04-21 18:41:00,57.7,43.0,30.29,SSE,158,0.4,0.4,58,0.00,,---,0.02,VWS V14.00,2013-04-21 22:41:00,
2013-04-21 18:46:00,57.3,42.7,30.29,East,90,0.0,0.4,58,0.00,,---,0.02,VWS V14.00,2013-04-21 22:46:00,
2013-04-21 18:51:00,57.0,42.4,30.29,NE,45,1.1,1.1,58,0.00,,---,0.02,VWS V14.00,2013-04-21 22:51:00,
2013-04-21 18:56:00,56.8,42.6,30.29,SE,135,0.0,1.3,59,0.00,,---,0.02,VWS V14.00,2013-04-21 22:56:00,
2013-04-21 19:01:00,56.4,42.3,30.29,SSE,158,0.0,0.0,59,0.00,,---,0.02,VWS V14.00,2013-04-21 23:01:00,
2013-04-21 19:06:00,56.3,42.2,30.29,ENE,68,0.8,0.8,59,0.00,,---,0.02,VWS V14.00,2013-04-21 23:06:00,
2013-04-21 19:11:00,55.7,41.6,30.30,ESE,112,3.1,3.1,59,0.00,,---,0.02,VWS V14.00,2013-04-21 23:11:00,
2013-04-21 19:16:00,55.5,41.4,30.30,WSW,248,2.0,3.1,59,0.00,,---,0.02,VWS V14.00,2013-04-21 23:16:00,
2013-04-21 19:21:00,55.0,41.0,30.30,WSW,248,0.4,0.4,59,0.00,,---,0.02,VWS V14.00,2013-04-21 23:21:00,
2013-04-21 19:26:00,54.8,40.8,30.30,SSE,158,1.7,1.7,59,0.00,,---,0.02,VWS V14.00,2013-04-21 23:26:00,
2013-04-21 19:31:00,54.5,40.9,30.30,SSW,202,0.0,0.0,60,0.00,,---,0.02,VWS V14.00,2013-04-21 23:31:00,
2013-04-21 19:36:00,54.1,40.5,30.30,SE,135,0.0,0.0,60,0.00,,---,0.02,VWS V14.00,2013-04-21 23:36:00,
2013-04-21 19:41:00,53.7,40.2,30.30,East,90,0.0,0.0,60,0.00,,---,0.02,VWS V14.00,2013-04-21 23:41:00,
2013-04-21 19:46:00,53.4,40.3,30.30,East,90,0.0,0.0,61,0.00,,---,0.02,VWS V14.00,2013-04-21 23:46:00,
2013-04-21 19:51:00,53.2,40.5,30.30,WSW,248,0.0,0.0,62,0.00,,---,0.02,VWS V14.00,2013-04-21 23:51:00,
2013-04-21 19:56:00,52.8,40.2,30.31,WSW,248,0.0,0.0,62,0.00,,---,0.02,VWS V14.00,2013-04-21 23:56:00,
2013-04-21 20:01:00,52.5,40.3,30.31,SW,225,0.0,0.0,63,0.00,,---,0.02,VWS V14.00,2013-04-22 00:01:00,
2013-04-21 20:06:00,51.9,40.1,30.31,SSW,202,0.0,0.0,64,0.00,,---,0.02,VWS V14.00,2013-04-22 00:06:00,
2013-04-21 20:11:00,51.6,39.8,30.31,SSW,202,0.0,0.0,64,0.00,,---,0.02,VWS V14.00,2013-04-22 00:11:00,
2013-04-21 20:16:00,51.4,40.0,30.31,South,180,0.0,0.0,65,0.00,,---,0.02,VWS V14.00,2013-04-22 00:16:00,
2013-04-21 20:21:00,51.0,40.1,30.31,South,180,0.0,0.0,66,0.00,,---,0.02,VWS V14.00,2013-04-22 00:21:00,
2013-04-21 20:26:00,50.7,40.2,30.31,SSE,158,0.8,0.8,67,0.00,,---,0.02,VWS V14.00,2013-04-22 00:26:00,
2013-04-21 20:31:00,50.5,40.0,30.32,SSE,158,0.0,0.0,67,0.00,,---,0.02,VWS V14.00,2013-04-22 00:31:00,
2013-04-21 20:36:00,50.1,40.0,30.32,SW,225,0.0,0.0,68,0.00,,---,0.02,VWS V14.00,2013-04-22 00:36:00,
2013-04-21 20:41:00,49.8,40.0,30.32,SW,225,0.0,0.0,69,0.00,,---,0.02,VWS V14.00,2013-04-22 00:41:00,
2013-04-21 20:46:00,49.1,39.8,30.33,SW,225,0.0,0.0,70,0.00,,---,0.02,VWS V14.00,2013-04-22 00:46:00,
2013-04-21 20:51:00,48.7,40.1,30.34,SW,225,0.0,0.0,72,0.00,,---,0.02,VWS V14.00,2013-04-22 00:51:00,
2013-04-21 20:56:00,48.5,39.9,30.33,SW,225,0.0,0.0,72,0.00,,---,0.02,VWS V14.00,2013-04-22 00:56:00,
2013-04-21 21:02:00,48.0,39.8,30.34,SW,225,0.0,0.0,73,0.00,,---,0.02,VWS V14.00,2013-04-22 01:02:00,
2013-04-21 21:07:00,47.8,39.6,30.34,SW,225,0.0,0.0,73,0.00,,---,0.02,VWS V14.00,2013-04-22 01:07:00,
2013-04-21 21:12:00,47.6,39.7,30.34,SW,225,0.0,0.0,74,0.00,,---,0.02,VWS V14.00,2013-04-22 01:12:00,
2013-04-21 21:17:00,47.3,39.8,30.34,SW,225,0.0,0.0,75,0.00,,---,0.02,VWS V14.00,2013-04-22 01:17:00,
2013-04-21 21:22:00,47.1,39.6,30.34,SW,225,0.0,0.0,75,0.00,,---,0.02,VWS V14.00,2013-04-22 01:22:00,
2013-04-21 21:27:00,46.5,39.0,30.34,SW,225,0.0,0.0,75,0.00,,---,0.02,VWS V14.00,2013-04-22 01:27:00,
2013-04-21 21:32:00,46.4,39.3,30.34,SW,225,0.0,0.0,76,0.00,,---,0.02,VWS V14.00,2013-04-22 01:32:00,
2013-04-21 21:37:00,46.2,39.4,30.34,SW,225,0.0,0.0,77,0.00,,---,0.02,VWS V14.00,2013-04-22 01:37:00,
2013-04-21 21:42:00,45.8,39.0,30.35,SW,225,0.0,0.0,77,0.00,,---,0.02,VWS V14.00,2013-04-22 01:42:00,
2013-04-21 21:47:00,45.6,39.2,30.35,SW,225,0.0,0.0,78,0.00,,---,0.02,VWS V14.00,2013-04-22 01:47:00,
2013-04-21 21:52:00,45.5,39.0,30.35,SW,225,0.0,0.0,78,0.00,,---,0.02,VWS V14.00,2013-04-22 01:52:00,
2013-04-21 21:57:00,45.1,39.0,30.35,SW,225,0.0,0.0,79,0.00,,---,0.02,VWS V14.00,2013-04-22 01:57:00,
2013-04-21 22:02:00,44.9,38.8,30.35,SW,225,0.0,0.0,79,0.00,,---,0.02,VWS V14.00,2013-04-22 02:02:00,
2013-04-21 22:07:00,44.9,39.1,30.35,SW,225,0.6,0.6,80,0.00,,---,0.02,VWS V14.00,2013-04-22 02:07:00,
2013-04-21 22:12:00,44.6,39.1,30.35,SW,225,0.0,0.0,81,0.00,,---,0.02,VWS V14.00,2013-04-22 02:12:00,
2013-04-21 22:17:00,44.4,38.9,30.36,SW,225,0.0,0.0,81,0.00,,---,0.02,VWS V14.00,2013-04-22 02:17:00,
2013-04-21 22:22:00,44.2,39.1,30.36,SW,225,0.0,0.0,82,0.00,,---,0.02,VWS V14.00,2013-04-22 02:22:00,
2013-04-21 22:27:00,44.0,38.9,30.35,SW,225,0.0,0.0,82,0.00,,---,0.02,VWS V14.00,2013-04-22 02:27:00,
2013-04-21 22:32:00,43.8,39.0,30.35,SW,225,0.0,0.0,83,0.00,,---,0.02,VWS V14.00,2013-04-22 02:32:00,
2013-04-21 22:37:00,43.7,38.9,30.35,SW,225,0.0,0.0,83,0.00,,---,0.02,VWS V14.00,2013-04-22 02:37:00,
2013-04-21 22:42:00,43.5,38.7,30.35,SW,225,0.0,0.0,83,0.00,,---,0.02,VWS V14.00,2013-04-22 02:42:00,
2013-04-21 22:47:00,43.5,39.0,30.35,SW,225,0.0,0.0,84,0.00,,---,0.02,VWS V14.00,2013-04-22 02:47:00,
2013-04-21 22:52:00,43.3,38.8,30.35,SW,225,0.0,0.0,84,0.00,,---,0.02,VWS V14.00,2013-04-22 02:52:00,
2013-04-21 22:57:00,43.1,38.9,30.34,SW,225,0.0,0.0,85,0.00,,---,0.02,VWS V14.00,2013-04-22 02:57:00,
2013-04-21 23:02:00,43.1,38.9,30.35,SW,225,0.0,0.0,85,0.00,,---,0.02,VWS V14.00,2013-04-22 03:02:00,
2013-04-21 23:07:00,42.9,38.7,30.35,SW,225,0.0,0.0,85,0.00,,---,0.02,VWS V14.00,2013-04-22 03:07:00,
2013-04-21 23:12:00,42.9,38.7,30.35,SW,225,0.0,0.0,85,0.00,,---,0.02,VWS V14.00,2013-04-22 03:12:00,
2013-04-21 23:17:00,42.6,38.7,30.35,SW,225,0.0,0.0,86,0.00,,---,0.02,VWS V14.00,2013-04-22 03:17:00,
2013-04-21 23:22:00,42.6,38.7,30.35,SW,225,0.0,0.0,86,0.00,,---,0.02,VWS V14.00,2013-04-22 03:22:00,
2013-04-21 23:27:00,42.6,39.0,30.34,SW,225,0.0,0.0,87,0.00,,---,0.02,VWS V14.00,2013-04-22 03:27:00,
2013-04-21 23:32:00,42.4,38.8,30.34,SW,225,0.0,0.0,87,0.00,,---,0.02,VWS V14.00,2013-04-22 03:32:00,
2013-04-21 23:37:00,42.0,38.4,30.34,SW,225,0.0,0.0,87,0.00,,---,0.02,VWS V14.00,2013-04-22 03:37:00,
2013-04-21 23:42:00,42.0,38.4,30.34,SW,225,0.0,0.0,87,0.00,,---,0.02,VWS V14.00,2013-04-22 03:42:00,
2013-04-21 23:47:00,41.9,38.6,30.34,SW,225,0.0,0.0,88,0.00,,---,0.02,VWS V14.00,2013-04-22 03:47:00,
2013-04-21 23:52:00,41.9,38.6,30.34,SW,225,0.0,0.0,88,0.00,,---,0.02,VWS V14.00,2013-04-22 03:52:00,
2013-04-21 23:57:00,41.7,38.4,30.34,SW,225,0.0,0.0,88,0.00,,---,0.02,VWS V14.00,2013-04-22 03:57:00,